sensor_id;sensor_type;location;lat;lon;timestamp;P1;durP1;ratioP1;P2;durP2;ratioP2
4519;SDS011;2272;49.226;8.108;2022-12-07T00:01:18;5.00;;;4.60;;
4519;SDS011;2272;49.226;8.108;2022-12-07T00:03:48;10.70;;;6.27;;
4519;SDS011;2272;49.226;8.108;2022-12-07T00:06:17;7.00;;;5.33;;
4519;SDS011;2272;49.226;8.108;2022-12-07T00:08:44;5.77;;;4.87;;
4519;SDS011;2272;49.226;8.108;2022-12-07T00:11:13;8.50;;;5.10;;
4519;SDS011;2272;49.226;8.108;2022-12-07T00:13:41;7.10;;;6.00;;
4519;SDS011;2272;49.226;8.108;2022-12-07T00:16:10;6.87;;;5.57;;
4519;SDS011;2272;49.226;8.108;2022-12-07T00:18:38;7.30;;;5.67;;
4519;SDS011;2272;49.226;8.108;2022-12-07T00:21:06;8.30;;;6.53;;
4519;SDS011;2272;49.226;8.108;2022-12-07T00:23:35;7.70;;;5.97;;
4519;SDS011;2272;49.226;8.108;2022-12-07T00:26:03;5.90;;;5.07;;
4519;SDS011;2272;49.226;8.108;2022-12-07T00:28:32;5.60;;;4.60;;
4519;SDS011;2272;49.226;8.108;2022-12-07T00:31:00;8.53;;;4.33;;
4519;SDS011;2272;49.226;8.108;2022-12-07T00:33:27;7.60;;;5.23;;
4519;SDS011;2272;49.226;8.108;2022-12-07T00:35:55;4.67;;;4.00;;
4519;SDS011;2272;49.226;8.108;2022-12-07T00:38:22;4.47;;;4.07;;
4519;SDS011;2272;49.226;8.108;2022-12-07T00:40:53;4.20;;;3.80;;
4519;SDS011;2272;49.226;8.108;2022-12-07T00:43:21;5.47;;;4.93;;
4519;SDS011;2272;49.226;8.108;2022-12-07T00:45:49;6.90;;;5.07;;
4519;SDS011;2272;49.226;8.108;2022-12-07T00:48:16;7.17;;;5.03;;
4519;SDS011;2272;49.226;8.108;2022-12-07T00:50:43;6.20;;;5.03;;
4519;SDS011;2272;49.226;8.108;2022-12-07T00:53:10;6.97;;;5.60;;
4519;SDS011;2272;49.226;8.108;2022-12-07T00:55:36;9.80;;;5.20;;
4519;SDS011;2272;49.226;8.108;2022-12-07T00:58:03;6.27;;;5.47;;
4519;SDS011;2272;49.226;8.108;2022-12-07T01:00:30;5.83;;;4.80;;
4519;SDS011;2272;49.226;8.108;2022-12-07T01:02:59;6.23;;;5.23;;
4519;SDS011;2272;49.226;8.108;2022-12-07T01:05:25;4.63;;;4.23;;
4519;SDS011;2272;49.226;8.108;2022-12-07T01:07:52;8.43;;;4.70;;
4519;SDS011;2272;49.226;8.108;2022-12-07T01:10:19;4.27;;;3.87;;
4519;SDS011;2272;49.226;8.108;2022-12-07T01:12:45;5.13;;;4.63;;
4519;SDS011;2272;49.226;8.108;2022-12-07T01:15:12;5.50;;;4.87;;
4519;SDS011;2272;49.226;8.108;2022-12-07T01:17:39;5.37;;;4.87;;
4519;SDS011;2272;49.226;8.108;2022-12-07T01:20:08;10.50;;;4.63;;
4519;SDS011;2272;49.226;8.108;2022-12-07T01:22:36;7.73;;;4.77;;
4519;SDS011;2272;49.226;8.108;2022-12-07T01:25:03;7.47;;;4.53;;
4519;SDS011;2272;49.226;8.108;2022-12-07T01:27:31;4.63;;;4.17;;
4519;SDS011;2272;49.226;8.108;2022-12-07T01:29:59;6.23;;;4.80;;
4519;SDS011;2272;49.226;8.108;2022-12-07T01:32:25;4.70;;;4.27;;
4519;SDS011;2272;49.226;8.108;2022-12-07T01:34:52;5.00;;;4.53;;
4519;SDS011;2272;49.226;8.108;2022-12-07T01:37:20;4.20;;;3.80;;
4519;SDS011;2272;49.226;8.108;2022-12-07T01:39:48;6.87;;;4.80;;
4519;SDS011;2272;49.226;8.108;2022-12-07T01:42:14;5.67;;;5.10;;
4519;SDS011;2272;49.226;8.108;2022-12-07T01:47:49;8.07;;;5.40;;
4519;SDS011;2272;49.226;8.108;2022-12-07T01:50:19;6.80;;;5.67;;
4519;SDS011;2272;49.226;8.108;2022-12-07T01:52:49;6.50;;;4.73;;
4519;SDS011;2272;49.226;8.108;2022-12-07T01:55:17;6.07;;;5.40;;
4519;SDS011;2272;49.226;8.108;2022-12-07T01:57:45;5.47;;;4.97;;
4519;SDS011;2272;49.226;8.108;2022-12-07T02:00:14;5.50;;;5.00;;
4519;SDS011;2272;49.226;8.108;2022-12-07T02:02:43;7.37;;;6.00;;
4519;SDS011;2272;49.226;8.108;2022-12-07T02:05:12;8.10;;;4.90;;
4519;SDS011;2272;49.226;8.108;2022-12-07T02:07:39;6.70;;;5.50;;
4519;SDS011;2272;49.226;8.108;2022-12-07T02:10:15;9.80;;;6.13;;
4519;SDS011;2272;49.226;8.108;2022-12-07T02:12:43;5.83;;;5.30;;
4519;SDS011;2272;49.226;8.108;2022-12-07T02:15:12;6.67;;;5.63;;
4519;SDS011;2272;49.226;8.108;2022-12-07T02:17:40;6.33;;;5.70;;
4519;SDS011;2272;49.226;8.108;2022-12-07T02:20:19;7.40;;;5.97;;
4519;SDS011;2272;49.226;8.108;2022-12-07T02:23:00;11.80;;;6.07;;
4519;SDS011;2272;49.226;8.108;2022-12-07T02:25:53;6.33;;;5.70;;
4519;SDS011;2272;49.226;8.108;2022-12-07T02:28:29;10.40;;;6.23;;
4519;SDS011;2272;49.226;8.108;2022-12-07T02:31:03;7.10;;;6.00;;
4519;SDS011;2272;49.226;8.108;2022-12-07T02:33:33;8.37;;;6.10;;
4519;SDS011;2272;49.226;8.108;2022-12-07T02:36:04;10.20;;;6.80;;
4519;SDS011;2272;49.226;8.108;2022-12-07T02:38:37;6.83;;;6.00;;
4519;SDS011;2272;49.226;8.108;2022-12-07T02:41:10;6.43;;;4.90;;
4519;SDS011;2272;49.226;8.108;2022-12-07T02:43:39;5.93;;;5.37;;
4519;SDS011;2272;49.226;8.108;2022-12-07T02:46:11;5.53;;;5.00;;
4519;SDS011;2272;49.226;8.108;2022-12-07T02:48:41;7.30;;;5.87;;
4519;SDS011;2272;49.226;8.108;2022-12-07T02:51:09;6.70;;;6.00;;
4519;SDS011;2272;49.226;8.108;2022-12-07T02:53:38;5.77;;;5.27;;
4519;SDS011;2272;49.226;8.108;2022-12-07T02:56:07;7.47;;;5.60;;
4519;SDS011;2272;49.226;8.108;2022-12-07T02:58:40;6.87;;;6.17;;
4519;SDS011;2272;49.226;8.108;2022-12-07T03:01:19;9.33;;;6.37;;
4519;SDS011;2272;49.226;8.108;2022-12-07T03:03:56;7.80;;;6.37;;
4519;SDS011;2272;49.226;8.108;2022-12-07T03:06:29;8.30;;;6.50;;
4519;SDS011;2272;49.226;8.108;2022-12-07T03:09:02;10.67;;;6.67;;
4519;SDS011;2272;49.226;8.108;2022-12-07T03:11:38;6.90;;;5.70;;
4519;SDS011;2272;49.226;8.108;2022-12-07T03:14:12;9.10;;;6.03;;
4519;SDS011;2272;49.226;8.108;2022-12-07T03:16:45;8.07;;;5.50;;
4519;SDS011;2272;49.226;8.108;2022-12-07T03:19:17;9.00;;;6.87;;
4519;SDS011;2272;49.226;8.108;2022-12-07T03:21:46;7.40;;;6.13;;
4519;SDS011;2272;49.226;8.108;2022-12-07T03:24:18;13.60;;;6.03;;
4519;SDS011;2272;49.226;8.108;2022-12-07T03:26:48;5.67;;;5.00;;
4519;SDS011;2272;49.226;8.108;2022-12-07T03:29:19;8.90;;;6.30;;
4519;SDS011;2272;49.226;8.108;2022-12-07T03:31:52;6.93;;;6.07;;
4519;SDS011;2272;49.226;8.108;2022-12-07T03:34:26;6.67;;;5.47;;
4519;SDS011;2272;49.226;8.108;2022-12-07T03:36:56;7.50;;;6.10;;
4519;SDS011;2272;49.226;8.108;2022-12-07T03:39:27;9.67;;;5.60;;
4519;SDS011;2272;49.226;8.108;2022-12-07T03:41:58;9.97;;;7.07;;
4519;SDS011;2272;49.226;8.108;2022-12-07T03:44:26;11.37;;;6.50;;
4519;SDS011;2272;49.226;8.108;2022-12-07T03:46:57;6.87;;;5.90;;
4519;SDS011;2272;49.226;8.108;2022-12-07T03:49:29;13.27;;;6.80;;
4519;SDS011;2272;49.226;8.108;2022-12-07T03:52:02;9.87;;;6.13;;
4519;SDS011;2272;49.226;8.108;2022-12-07T03:54:35;7.53;;;5.90;;
4519;SDS011;2272;49.226;8.108;2022-12-07T03:57:06;7.67;;;6.13;;
4519;SDS011;2272;49.226;8.108;2022-12-07T03:59:34;7.40;;;6.70;;
4519;SDS011;2272;49.226;8.108;2022-12-07T04:02:04;10.90;;;6.70;;
4519;SDS011;2272;49.226;8.108;2022-12-07T04:04:32;11.13;;;6.50;;
4519;SDS011;2272;49.226;8.108;2022-12-07T04:06:59;6.80;;;5.90;;
4519;SDS011;2272;49.226;8.108;2022-12-07T04:09:26;8.43;;;6.20;;
4519;SDS011;2272;49.226;8.108;2022-12-07T04:11:53;11.43;;;6.23;;
4519;SDS011;2272;49.226;8.108;2022-12-07T04:14:19;7.53;;;6.40;;
4519;SDS011;2272;49.226;8.108;2022-12-07T04:16:46;7.20;;;6.30;;
4519;SDS011;2272;49.226;8.108;2022-12-07T04:19:16;9.17;;;6.57;;
4519;SDS011;2272;49.226;8.108;2022-12-07T04:21:43;6.20;;;5.60;;
4519;SDS011;2272;49.226;8.108;2022-12-07T04:24:11;6.77;;;6.00;;
4519;SDS011;2272;49.226;8.108;2022-12-07T04:26:38;6.77;;;6.10;;
4519;SDS011;2272;49.226;8.108;2022-12-07T04:29:05;9.00;;;6.07;;
4519;SDS011;2272;49.226;8.108;2022-12-07T04:31:32;9.00;;;6.17;;
4519;SDS011;2272;49.226;8.108;2022-12-07T04:33:59;7.00;;;5.73;;
4519;SDS011;2272;49.226;8.108;2022-12-07T04:36:27;9.70;;;6.50;;
4519;SDS011;2272;49.226;8.108;2022-12-07T04:38:54;8.70;;;6.00;;
4519;SDS011;2272;49.226;8.108;2022-12-07T04:41:21;8.40;;;6.60;;
4519;SDS011;2272;49.226;8.108;2022-12-07T04:43:52;9.27;;;7.37;;
4519;SDS011;2272;49.226;8.108;2022-12-07T04:46:19;11.40;;;8.27;;
4519;SDS011;2272;49.226;8.108;2022-12-07T04:48:46;11.63;;;7.37;;
4519;SDS011;2272;49.226;8.108;2022-12-07T04:51:13;8.77;;;5.73;;
4519;SDS011;2272;49.226;8.108;2022-12-07T04:53:43;8.33;;;5.90;;
4519;SDS011;2272;49.226;8.108;2022-12-07T04:56:09;12.53;;;7.43;;
4519;SDS011;2272;49.226;8.108;2022-12-07T04:58:36;7.07;;;5.90;;
4519;SDS011;2272;49.226;8.108;2022-12-07T05:01:03;6.73;;;6.03;;
4519;SDS011;2272;49.226;8.108;2022-12-07T05:03:29;9.03;;;6.07;;
4519;SDS011;2272;49.226;8.108;2022-12-07T05:05:56;8.07;;;6.00;;
4519;SDS011;2272;49.226;8.108;2022-12-07T05:08:23;7.97;;;6.07;;
4519;SDS011;2272;49.226;8.108;2022-12-07T05:10:51;9.10;;;6.40;;
4519;SDS011;2272;49.226;8.108;2022-12-07T05:13:17;12.27;;;7.03;;
4519;SDS011;2272;49.226;8.108;2022-12-07T05:15:44;11.00;;;6.93;;
4519;SDS011;2272;49.226;8.108;2022-12-07T05:18:13;8.07;;;6.90;;
4519;SDS011;2272;49.226;8.108;2022-12-07T05:20:40;17.00;;;7.40;;
4519;SDS011;2272;49.226;8.108;2022-12-07T05:23:07;12.87;;;8.27;;
4519;SDS011;2272;49.226;8.108;2022-12-07T05:25:34;11.33;;;6.40;;
4519;SDS011;2272;49.226;8.108;2022-12-07T05:28:03;7.90;;;6.43;;
4519;SDS011;2272;49.226;8.108;2022-12-07T05:30:30;8.07;;;6.30;;
4519;SDS011;2272;49.226;8.108;2022-12-07T05:32:57;13.70;;;7.30;;
4519;SDS011;2272;49.226;8.108;2022-12-07T05:35:24;9.90;;;6.10;;
4519;SDS011;2272;49.226;8.108;2022-12-07T05:37:51;7.20;;;6.50;;
4519;SDS011;2272;49.226;8.108;2022-12-07T05:40:18;9.80;;;6.90;;
4519;SDS011;2272;49.226;8.108;2022-12-07T05:42:45;9.27;;;6.43;;
4519;SDS011;2272;49.226;8.108;2022-12-07T05:45:13;8.70;;;6.33;;
4519;SDS011;2272;49.226;8.108;2022-12-07T05:47:39;7.23;;;6.33;;
4519;SDS011;2272;49.226;8.108;2022-12-07T05:50:06;14.80;;;7.40;;
4519;SDS011;2272;49.226;8.108;2022-12-07T05:52:33;9.77;;;6.33;;
4519;SDS011;2272;49.226;8.108;2022-12-07T05:55:00;8.30;;;6.53;;
4519;SDS011;2272;49.226;8.108;2022-12-07T05:57:27;9.47;;;6.67;;
4519;SDS011;2272;49.226;8.108;2022-12-07T05:59:53;9.47;;;5.60;;
4519;SDS011;2272;49.226;8.108;2022-12-07T06:02:20;8.63;;;6.20;;
4519;SDS011;2272;49.226;8.108;2022-12-07T06:04:47;10.60;;;7.20;;
4519;SDS011;2272;49.226;8.108;2022-12-07T06:07:15;9.80;;;6.73;;
4519;SDS011;2272;49.226;8.108;2022-12-07T06:09:42;10.27;;;7.37;;
4519;SDS011;2272;49.226;8.108;2022-12-07T06:12:09;7.07;;;6.33;;
4519;SDS011;2272;49.226;8.108;2022-12-07T06:14:53;9.70;;;6.73;;
4519;SDS011;2272;49.226;8.108;2022-12-07T06:17:22;9.80;;;6.50;;
4519;SDS011;2272;49.226;8.108;2022-12-07T06:19:48;9.00;;;6.57;;
4519;SDS011;2272;49.226;8.108;2022-12-07T06:22:15;10.70;;;6.87;;
4519;SDS011;2272;49.226;8.108;2022-12-07T06:24:42;9.77;;;6.13;;
4519;SDS011;2272;49.226;8.108;2022-12-07T06:27:09;15.10;;;7.70;;
4519;SDS011;2272;49.226;8.108;2022-12-07T06:29:36;11.30;;;7.67;;
4519;SDS011;2272;49.226;8.108;2022-12-07T06:32:03;17.20;;;8.53;;
4519;SDS011;2272;49.226;8.108;2022-12-07T06:34:32;10.60;;;7.87;;
4519;SDS011;2272;49.226;8.108;2022-12-07T06:36:58;13.00;;;7.87;;
4519;SDS011;2272;49.226;8.108;2022-12-07T06:39:26;10.37;;;7.53;;
4519;SDS011;2272;49.226;8.108;2022-12-07T06:41:58;12.10;;;8.40;;
4519;SDS011;2272;49.226;8.108;2022-12-07T06:44:57;12.60;;;8.60;;
4519;SDS011;2272;49.226;8.108;2022-12-07T06:47:24;15.43;;;8.63;;
4519;SDS011;2272;49.226;8.108;2022-12-07T06:49:52;12.97;;;9.60;;
4519;SDS011;2272;49.226;8.108;2022-12-07T06:52:18;15.53;;;10.13;;
4519;SDS011;2272;49.226;8.108;2022-12-07T06:54:45;13.10;;;7.97;;
4519;SDS011;2272;49.226;8.108;2022-12-07T06:57:12;12.93;;;8.93;;
4519;SDS011;2272;49.226;8.108;2022-12-07T06:59:39;18.27;;;9.50;;
4519;SDS011;2272;49.226;8.108;2022-12-07T07:02:13;18.10;;;10.73;;
4519;SDS011;2272;49.226;8.108;2022-12-07T07:04:39;31.07;;;16.87;;
4519;SDS011;2272;49.226;8.108;2022-12-07T07:07:07;24.50;;;14.37;;
4519;SDS011;2272;49.226;8.108;2022-12-07T07:09:34;30.20;;;15.40;;
4519;SDS011;2272;49.226;8.108;2022-12-07T07:12:01;20.43;;;13.50;;
4519;SDS011;2272;49.226;8.108;2022-12-07T07:14:28;17.43;;;11.23;;
4519;SDS011;2272;49.226;8.108;2022-12-07T07:16:54;25.70;;;15.17;;
4519;SDS011;2272;49.226;8.108;2022-12-07T07:19:21;21.40;;;14.37;;
4519;SDS011;2272;49.226;8.108;2022-12-07T07:21:48;28.40;;;16.20;;
4519;SDS011;2272;49.226;8.108;2022-12-07T07:24:16;40.77;;;22.23;;
4519;SDS011;2272;49.226;8.108;2022-12-07T07:26:42;22.40;;;14.13;;
4519;SDS011;2272;49.226;8.108;2022-12-07T07:29:09;19.80;;;13.30;;
4519;SDS011;2272;49.226;8.108;2022-12-07T07:31:36;20.40;;;12.57;;
4519;SDS011;2272;49.226;8.108;2022-12-07T07:34:03;27.87;;;17.73;;
4519;SDS011;2272;49.226;8.108;2022-12-07T07:36:30;30.97;;;18.03;;
4519;SDS011;2272;49.226;8.108;2022-12-07T07:38:57;20.37;;;14.70;;
4519;SDS011;2272;49.226;8.108;2022-12-07T07:41:25;26.93;;;15.40;;
4519;SDS011;2272;49.226;8.108;2022-12-07T07:43:52;12.73;;;9.03;;
4519;SDS011;2272;49.226;8.108;2022-12-07T07:46:18;17.53;;;11.60;;
4519;SDS011;2272;49.226;8.108;2022-12-07T07:48:45;13.90;;;9.73;;
4519;SDS011;2272;49.226;8.108;2022-12-07T07:51:12;15.00;;;10.00;;
4519;SDS011;2272;49.226;8.108;2022-12-07T07:53:50;14.80;;;9.70;;
4519;SDS011;2272;49.226;8.108;2022-12-07T07:56:16;16.33;;;10.90;;
4519;SDS011;2272;49.226;8.108;2022-12-07T07:58:45;20.50;;;11.70;;
4519;SDS011;2272;49.226;8.108;2022-12-07T08:01:14;27.63;;;16.73;;
4519;SDS011;2272;49.226;8.108;2022-12-07T08:03:41;37.83;;;21.33;;
4519;SDS011;2272;49.226;8.108;2022-12-07T08:06:08;19.53;;;12.57;;
4519;SDS011;2272;49.226;8.108;2022-12-07T08:08:35;18.87;;;12.00;;
4519;SDS011;2272;49.226;8.108;2022-12-07T08:11:04;19.83;;;10.97;;
4519;SDS011;2272;49.226;8.108;2022-12-07T08:13:31;16.40;;;10.43;;
4519;SDS011;2272;49.226;8.108;2022-12-07T08:15:59;18.87;;;11.30;;
4519;SDS011;2272;49.226;8.108;2022-12-07T08:18:30;12.10;;;9.40;;
4519;SDS011;2272;49.226;8.108;2022-12-07T08:20:58;21.77;;;12.93;;
4519;SDS011;2272;49.226;8.108;2022-12-07T08:23:26;18.10;;;12.17;;
4519;SDS011;2272;49.226;8.108;2022-12-07T08:25:52;21.73;;;11.23;;
4519;SDS011;2272;49.226;8.108;2022-12-07T08:28:19;21.33;;;10.90;;
4519;SDS011;2272;49.226;8.108;2022-12-07T08:30:46;22.80;;;11.77;;
4519;SDS011;2272;49.226;8.108;2022-12-07T08:33:14;22.63;;;11.60;;
4519;SDS011;2272;49.226;8.108;2022-12-07T08:35:41;25.53;;;14.50;;
4519;SDS011;2272;49.226;8.108;2022-12-07T08:38:07;23.27;;;14.27;;
4519;SDS011;2272;49.226;8.108;2022-12-07T08:40:34;24.50;;;13.30;;
4519;SDS011;2272;49.226;8.108;2022-12-07T08:43:01;30.13;;;16.17;;
4519;SDS011;2272;49.226;8.108;2022-12-07T08:45:28;22.30;;;15.20;;
4519;SDS011;2272;49.226;8.108;2022-12-07T08:47:58;26.57;;;13.40;;
4519;SDS011;2272;49.226;8.108;2022-12-07T08:50:30;22.17;;;14.93;;
4519;SDS011;2272;49.226;8.108;2022-12-07T08:52:58;19.73;;;12.50;;
4519;SDS011;2272;49.226;8.108;2022-12-07T08:55:26;13.20;;;10.10;;
4519;SDS011;2272;49.226;8.108;2022-12-07T08:57:55;25.97;;;14.47;;
4519;SDS011;2272;49.226;8.108;2022-12-07T09:00:24;20.33;;;12.80;;
4519;SDS011;2272;49.226;8.108;2022-12-07T09:02:51;33.60;;;15.13;;
4519;SDS011;2272;49.226;8.108;2022-12-07T09:05:17;35.77;;;14.37;;
4519;SDS011;2272;49.226;8.108;2022-12-07T09:07:46;19.20;;;12.50;;
4519;SDS011;2272;49.226;8.108;2022-12-07T09:10:16;19.63;;;11.57;;
4519;SDS011;2272;49.226;8.108;2022-12-07T09:12:43;18.53;;;11.50;;
4519;SDS011;2272;49.226;8.108;2022-12-07T09:15:10;17.00;;;11.77;;
4519;SDS011;2272;49.226;8.108;2022-12-07T09:17:37;15.30;;;10.13;;
4519;SDS011;2272;49.226;8.108;2022-12-07T09:20:04;19.97;;;12.60;;
4519;SDS011;2272;49.226;8.108;2022-12-07T09:22:31;19.17;;;11.10;;
4519;SDS011;2272;49.226;8.108;2022-12-07T09:25:00;16.43;;;11.97;;
4519;SDS011;2272;49.226;8.108;2022-12-07T09:27:28;25.30;;;10.40;;
4519;SDS011;2272;49.226;8.108;2022-12-07T09:29:54;17.07;;;11.83;;
4519;SDS011;2272;49.226;8.108;2022-12-07T09:32:21;22.10;;;15.07;;
4519;SDS011;2272;49.226;8.108;2022-12-07T09:34:48;26.87;;;16.20;;
4519;SDS011;2272;49.226;8.108;2022-12-07T09:37:15;27.80;;;15.27;;
4519;SDS011;2272;49.226;8.108;2022-12-07T09:39:41;32.33;;;17.60;;
4519;SDS011;2272;49.226;8.108;2022-12-07T09:42:11;40.60;;;21.97;;
4519;SDS011;2272;49.226;8.108;2022-12-07T09:44:52;17.90;;;12.80;;
4519;SDS011;2272;49.226;8.108;2022-12-07T09:47:19;15.73;;;12.00;;
4519;SDS011;2272;49.226;8.108;2022-12-07T09:49:46;20.53;;;11.13;;
4519;SDS011;2272;49.226;8.108;2022-12-07T09:52:18;18.00;;;10.70;;
4519;SDS011;2272;49.226;8.108;2022-12-07T09:54:52;13.40;;;9.50;;
4519;SDS011;2272;49.226;8.108;2022-12-07T09:57:22;14.17;;;9.97;;
4519;SDS011;2272;49.226;8.108;2022-12-07T09:59:55;15.97;;;9.87;;
4519;SDS011;2272;49.226;8.108;2022-12-07T10:02:23;13.20;;;9.67;;
4519;SDS011;2272;49.226;8.108;2022-12-07T10:04:59;16.43;;;10.63;;
4519;SDS011;2272;49.226;8.108;2022-12-07T10:07:26;18.13;;;11.67;;
4519;SDS011;2272;49.226;8.108;2022-12-07T10:09:54;18.43;;;10.53;;
4519;SDS011;2272;49.226;8.108;2022-12-07T10:12:22;15.23;;;10.23;;
4519;SDS011;2272;49.226;8.108;2022-12-07T10:14:56;24.73;;;10.93;;
4519;SDS011;2272;49.226;8.108;2022-12-07T10:17:29;14.23;;;11.03;;
4519;SDS011;2272;49.226;8.108;2022-12-07T10:20:18;13.87;;;9.77;;
4519;SDS011;2272;49.226;8.108;2022-12-07T10:22:53;16.60;;;10.83;;
4519;SDS011;2272;49.226;8.108;2022-12-07T10:25:22;15.23;;;9.77;;
4519;SDS011;2272;49.226;8.108;2022-12-07T10:28:00;16.17;;;10.10;;
4519;SDS011;2272;49.226;8.108;2022-12-07T10:30:29;16.20;;;9.70;;
4519;SDS011;2272;49.226;8.108;2022-12-07T10:32:57;12.83;;;8.90;;
4519;SDS011;2272;49.226;8.108;2022-12-07T10:35:25;15.03;;;9.67;;
4519;SDS011;2272;49.226;8.108;2022-12-07T10:37:53;16.00;;;8.40;;
4519;SDS011;2272;49.226;8.108;2022-12-07T10:40:24;12.57;;;8.20;;
4519;SDS011;2272;49.226;8.108;2022-12-07T10:43:01;11.47;;;8.23;;
4519;SDS011;2272;49.226;8.108;2022-12-07T10:45:29;14.33;;;7.90;;
4519;SDS011;2272;49.226;8.108;2022-12-07T10:47:58;12.13;;;8.47;;
4519;SDS011;2272;49.226;8.108;2022-12-07T10:50:29;15.77;;;10.17;;
4519;SDS011;2272;49.226;8.108;2022-12-07T10:53:14;10.07;;;7.90;;
4519;SDS011;2272;49.226;8.108;2022-12-07T10:55:56;13.27;;;8.80;;
4519;SDS011;2272;49.226;8.108;2022-12-07T10:58:34;16.10;;;8.90;;
4519;SDS011;2272;49.226;8.108;2022-12-07T11:01:16;9.90;;;7.93;;
4519;SDS011;2272;49.226;8.108;2022-12-07T11:06:45;15.67;;;10.80;;
4519;SDS011;2272;49.226;8.108;2022-12-07T11:12:30;13.63;;;9.40;;
4519;SDS011;2272;49.226;8.108;2022-12-07T11:15:11;10.53;;;8.57;;
4519;SDS011;2272;49.226;8.108;2022-12-07T11:17:45;13.70;;;9.17;;
4519;SDS011;2272;49.226;8.108;2022-12-07T11:20:23;17.10;;;9.63;;
4519;SDS011;2272;49.226;8.108;2022-12-07T11:23:02;12.80;;;9.67;;
4519;SDS011;2272;49.226;8.108;2022-12-07T11:25:38;14.07;;;8.83;;
4519;SDS011;2272;49.226;8.108;2022-12-07T11:28:15;11.53;;;8.40;;
4519;SDS011;2272;49.226;8.108;2022-12-07T11:30:52;11.63;;;7.57;;
4519;SDS011;2272;49.226;8.108;2022-12-07T11:33:29;14.23;;;9.90;;
4519;SDS011;2272;49.226;8.108;2022-12-07T11:36:02;15.63;;;10.33;;
4519;SDS011;2272;49.226;8.108;2022-12-07T11:38:42;19.90;;;14.33;;
4519;SDS011;2272;49.226;8.108;2022-12-07T11:41:13;10.00;;;8.47;;
4519;SDS011;2272;49.226;8.108;2022-12-07T11:43:50;10.50;;;7.07;;
4519;SDS011;2272;49.226;8.108;2022-12-07T11:46:22;13.17;;;8.23;;
4519;SDS011;2272;49.226;8.108;2022-12-07T11:48:55;13.43;;;9.30;;
4519;SDS011;2272;49.226;8.108;2022-12-07T11:51:28;16.40;;;8.43;;
4519;SDS011;2272;49.226;8.108;2022-12-07T11:53:59;10.23;;;7.67;;
4519;SDS011;2272;49.226;8.108;2022-12-07T11:56:29;15.20;;;8.67;;
4519;SDS011;2272;49.226;8.108;2022-12-07T11:59:02;9.93;;;7.90;;
4519;SDS011;2272;49.226;8.108;2022-12-07T12:01:42;14.10;;;8.50;;
4519;SDS011;2272;49.226;8.108;2022-12-07T12:04:23;9.77;;;7.43;;
4519;SDS011;2272;49.226;8.108;2022-12-07T12:07:00;11.00;;;7.70;;
4519;SDS011;2272;49.226;8.108;2022-12-07T12:09:28;12.20;;;7.03;;
4519;SDS011;2272;49.226;8.108;2022-12-07T12:14:55;13.43;;;8.50;;
4519;SDS011;2272;49.226;8.108;2022-12-07T12:17:37;14.97;;;8.60;;
4519;SDS011;2272;49.226;8.108;2022-12-07T12:20:19;20.23;;;12.70;;
4519;SDS011;2272;49.226;8.108;2022-12-07T12:22:50;15.00;;;10.17;;
4519;SDS011;2272;49.226;8.108;2022-12-07T12:25:22;7.60;;;6.13;;
4519;SDS011;2272;49.226;8.108;2022-12-07T12:27:52;7.60;;;6.50;;
4519;SDS011;2272;49.226;8.108;2022-12-07T12:33:12;16.53;;;5.87;;
4519;SDS011;2272;49.226;8.108;2022-12-07T12:35:42;6.50;;;5.90;;
4519;SDS011;2272;49.226;8.108;2022-12-07T12:38:29;14.13;;;6.00;;
4519;SDS011;2272;49.226;8.108;2022-12-07T12:40:58;6.43;;;4.90;;
4519;SDS011;2272;49.226;8.108;2022-12-07T12:58:48;7.50;;;6.70;;
4519;SDS011;2272;49.226;8.108;2022-12-07T13:01:33;9.20;;;6.83;;
4519;SDS011;2272;49.226;8.108;2022-12-07T13:10:38;8.00;;;5.20;;
4519;SDS011;2272;49.226;8.108;2022-12-07T13:13:28;8.07;;;6.27;;
4519;SDS011;2272;49.226;8.108;2022-12-07T13:22:38;6.73;;;5.80;;
4519;SDS011;2272;49.226;8.108;2022-12-07T13:25:20;5.00;;;4.50;;
4519;SDS011;2272;49.226;8.108;2022-12-07T13:27:57;8.43;;;5.90;;
4519;SDS011;2272;49.226;8.108;2022-12-07T13:30:27;8.07;;;5.03;;
4519;SDS011;2272;49.226;8.108;2022-12-07T13:33:03;9.93;;;7.57;;
4519;SDS011;2272;49.226;8.108;2022-12-07T13:35:30;11.97;;;5.40;;
4519;SDS011;2272;49.226;8.108;2022-12-07T13:38:00;8.20;;;6.10;;
4519;SDS011;2272;49.226;8.108;2022-12-07T13:40:31;7.53;;;6.17;;
4519;SDS011;2272;49.226;8.108;2022-12-07T13:42:58;5.77;;;5.10;;
4519;SDS011;2272;49.226;8.108;2022-12-07T13:45:26;7.03;;;5.60;;
4519;SDS011;2272;49.226;8.108;2022-12-07T13:48:08;7.40;;;5.50;;
4519;SDS011;2272;49.226;8.108;2022-12-07T13:50:42;8.73;;;6.00;;
4519;SDS011;2272;49.226;8.108;2022-12-07T13:53:11;9.70;;;6.40;;
4519;SDS011;2272;49.226;8.108;2022-12-07T13:55:46;7.17;;;6.07;;
4519;SDS011;2272;49.226;8.108;2022-12-07T13:58:13;7.00;;;5.47;;
4519;SDS011;2272;49.226;8.108;2022-12-07T14:00:40;9.43;;;6.00;;
4519;SDS011;2272;49.226;8.108;2022-12-07T14:03:22;11.27;;;6.07;;
4519;SDS011;2272;49.226;8.108;2022-12-07T14:06:02;5.30;;;4.63;;
4519;SDS011;2272;49.226;8.108;2022-12-07T14:08:39;8.47;;;6.37;;
4519;SDS011;2272;49.226;8.108;2022-12-07T14:11:07;12.77;;;6.57;;
4519;SDS011;2272;49.226;8.108;2022-12-07T14:13:39;9.57;;;7.60;;
4519;SDS011;2272;49.226;8.108;2022-12-07T14:16:18;30.27;;;18.47;;
4519;SDS011;2272;49.226;8.108;2022-12-07T14:18:51;18.27;;;10.60;;
4519;SDS011;2272;49.226;8.108;2022-12-07T14:21:18;13.60;;;7.17;;
4519;SDS011;2272;49.226;8.108;2022-12-07T14:24:01;11.30;;;7.80;;
4519;SDS011;2272;49.226;8.108;2022-12-07T14:26:38;8.00;;;7.20;;
4519;SDS011;2272;49.226;8.108;2022-12-07T14:29:18;7.80;;;6.73;;
4519;SDS011;2272;49.226;8.108;2022-12-07T14:31:55;11.17;;;6.40;;
4519;SDS011;2272;49.226;8.108;2022-12-07T14:34:23;11.43;;;6.67;;
4519;SDS011;2272;49.226;8.108;2022-12-07T14:36:50;7.70;;;5.73;;
4519;SDS011;2272;49.226;8.108;2022-12-07T14:39:17;9.47;;;5.93;;
4519;SDS011;2272;49.226;8.108;2022-12-07T14:41:45;8.53;;;6.53;;
4519;SDS011;2272;49.226;8.108;2022-12-07T14:44:17;21.60;;;11.10;;
4519;SDS011;2272;49.226;8.108;2022-12-07T14:46:45;20.13;;;10.50;;
4519;SDS011;2272;49.226;8.108;2022-12-07T14:49:12;14.20;;;8.27;;
4519;SDS011;2272;49.226;8.108;2022-12-07T14:51:39;9.17;;;7.07;;
4519;SDS011;2272;49.226;8.108;2022-12-07T14:54:09;9.30;;;7.07;;
4519;SDS011;2272;49.226;8.108;2022-12-07T14:56:42;9.97;;;6.87;;
4519;SDS011;2272;49.226;8.108;2022-12-07T14:59:14;10.20;;;8.10;;
4519;SDS011;2272;49.226;8.108;2022-12-07T15:01:41;16.17;;;10.00;;
4519;SDS011;2272;49.226;8.108;2022-12-07T15:04:08;11.70;;;7.67;;
4519;SDS011;2272;49.226;8.108;2022-12-07T15:06:34;14.03;;;9.67;;
4519;SDS011;2272;49.226;8.108;2022-12-07T15:09:02;16.20;;;8.80;;
4519;SDS011;2272;49.226;8.108;2022-12-07T15:11:29;12.27;;;8.63;;
4519;SDS011;2272;49.226;8.108;2022-12-07T15:13:57;10.77;;;8.20;;
4519;SDS011;2272;49.226;8.108;2022-12-07T15:16:38;20.73;;;13.80;;
4519;SDS011;2272;49.226;8.108;2022-12-07T15:19:07;18.50;;;10.40;;
4519;SDS011;2272;49.226;8.108;2022-12-07T15:21:38;18.83;;;11.60;;
4519;SDS011;2272;49.226;8.108;2022-12-07T15:24:05;15.50;;;9.37;;
4519;SDS011;2272;49.226;8.108;2022-12-07T15:26:32;13.10;;;8.60;;
4519;SDS011;2272;49.226;8.108;2022-12-07T15:29:00;14.37;;;8.43;;
4519;SDS011;2272;49.226;8.108;2022-12-07T15:31:26;14.93;;;9.23;;
4519;SDS011;2272;49.226;8.108;2022-12-07T15:33:53;12.77;;;8.53;;
4519;SDS011;2272;49.226;8.108;2022-12-07T15:36:21;13.57;;;9.80;;
4519;SDS011;2272;49.226;8.108;2022-12-07T15:38:49;16.27;;;9.37;;
4519;SDS011;2272;49.226;8.108;2022-12-07T15:41:16;19.80;;;8.90;;
4519;SDS011;2272;49.226;8.108;2022-12-07T15:43:43;13.90;;;9.17;;
4519;SDS011;2272;49.226;8.108;2022-12-07T15:46:33;16.73;;;11.30;;
4519;SDS011;2272;49.226;8.108;2022-12-07T15:49:02;19.20;;;12.53;;
4519;SDS011;2272;49.226;8.108;2022-12-07T15:51:30;16.97;;;11.67;;
4519;SDS011;2272;49.226;8.108;2022-12-07T15:53:57;15.80;;;12.40;;
4519;SDS011;2272;49.226;8.108;2022-12-07T15:56:24;17.90;;;11.67;;
4519;SDS011;2272;49.226;8.108;2022-12-07T15:58:51;17.80;;;11.60;;
4519;SDS011;2272;49.226;8.108;2022-12-07T16:01:18;22.97;;;13.47;;
4519;SDS011;2272;49.226;8.108;2022-12-07T16:03:47;16.53;;;10.57;;
4519;SDS011;2272;49.226;8.108;2022-12-07T16:06:15;21.43;;;12.83;;